Green Ice — C6SO4 — position and weather

sailwx.info

Track history (hours):
 
Tides and Currents Weather Stations Pressure Air Temp Water Temp Dewpoint Dewpoint Depression Visibility Wind Speed Wind Dir Waves Ship Positions

Green Ice

Last reported at 2014-Aug-23 00:18 UTC. Time now 2014-Aug-23 19:17 UTC.
Position N 64°44' E 010°56'.

Length 86 m; draft 6.4 m.

Type: Cargo ship. MMSI: 311411000.

Date/timePositionNaut miles runAvg speedWind from/ knotsBaromVisibWave heightAir tempDewpointWater temp
2014-Aug-23 00:18N 64°44' E 010°56'1013.1
2014-Aug-22 23:33N 64°51' E 011°12'1313.0
2014-Aug-22 22:33N 64°59' E 011°35'1512.4
2014-Aug-22 21:20N 65°12' E 011°53'55 9.4
2014-Aug-22 15:30N 66°04' E 012°38'1512.8
2014-Aug-22 14:17N 66°17' E 012°55'1013.0
2014-Aug-22 13:32N 66°27' E 012°59'3012.1
2014-Aug-22 11:03N 66°55' E 013°29'611.2
2014-Aug-22 10:31N 66°60' E 013°37'1312.5
2014-Aug-22 09:29N 67°08' E 014°02'1212.8
2014-Aug-22 08:33N 67°19' E 014°17'1211.7
2014-Aug-22 07:32N 67°30' E 014°22'156 5.8
2014-Aug-21 04:28N 69°33' E 018°43'6 6.8
2014-Aug-21 03:32N 69°38' E 018°57'0 0.0
2014-Aug-21 02:32N 69°38' E 018°57'0 0.0
2014-Aug-21 01:32N 69°38' E 018°57'0 0.0
2014-Aug-21 00:29N 69°38' E 018°57'0 0.0
2014-Aug-20 23:32N 69°38' E 018°57'0 0.0
2014-Aug-20 22:29N 69°38' E 018°57'0 0.0
2014-Aug-20 21:29N 69°38' E 018°57'0 0.0
2014-Aug-20 20:32N 69°38' E 018°57'0 0.0
2014-Aug-20 19:32N 69°38' E 018°57'0 0.0
2014-Aug-20 18:29N 69°38' E 018°57'0 0.0
2014-Aug-20 17:32N 69°38' E 018°57'0 0.0
2014-Aug-20 16:32N 69°38' E 018°57'0 0.0
2014-Aug-20 15:32N 69°38' E 018°57'0 0.0
2014-Aug-20 14:29N 69°38' E 018°57'2 2.0
2014-Aug-20 13:33N 69°39' E 018°58'0 0.0
2014-Aug-20 12:33N 69°39' E 018°58'0 0.0
2014-Aug-20 11:33N 69°39' E 018°58'0 0.0
2014-Aug-20 10:33N 69°39' E 018°58'0 0.0
2014-Aug-20 09:27N 69°39' E 018°58'3 2.3
2014-Aug-20 08:11N 69°42' E 019°01'0 0.0
2014-Aug-20 07:23N 69°42' E 019°01'4 5.3
2014-Aug-20 06:33N 69°46' E 019°07'9713.5
2014-Aug-19 23:21N 70°36' E 023°13'9 3.8
2014-Aug-19 21:04N 70°38' E 023°39'1 0.4
2014-Aug-19 19:33N 70°38' E 023°40'4 3.0
2014-Aug-19 18:05N 70°41' E 023°30'  
2014-Aug-17 08:14N 70°42' E 023°32'4 4.1
2014-Aug-17 07:19N 70°40' E 023°41'0 0.0
2014-Aug-17 05:33N 70°40' E 023°41'0 0.1
2014-Aug-17 04:28N 70°40' E 023°41'261 5.1
2014-Aug-15 01:33N 67°49' E 014°25'1712.6
2014-Aug-15 00:13N 67°33' E 014°21'913.0
2014-Aug-14 23:33N 67°24' E 014°26'7 6.4
2014-Aug-14 22:29N 67°17' E 014°24'0 0.0
2014-Aug-14 21:32N 67°17' E 014°24'0 0.0
2014-Aug-14 20:32N 67°17' E 014°24'0 0.0
2014-Aug-14 19:32N 67°17' E 014°24'0 0.0
2014-Aug-14 18:29N 67°17' E 014°24'0 0.0
2014-Aug-14 17:29N 67°17' E 014°24'1010.9
2014-Aug-14 16:33N 67°11' E 014°04'1813.0
2014-Aug-14 15:11N 66°58' E 013°32'3212.3
2014-Aug-14 12:33N 66°28' E 012°60'97 7.3
2014-Aug-13 23:08N 64°58' E 011°32'814.3
2014-Aug-13 22:34N 64°53' E 011°17'2 2.0
2014-Aug-13 21:33N 64°51' E 011°14'8810.7
2014-Aug-13 13:18N 63°30' E 009°56'1013.0
2014-Aug-13 12:33N 63°28' E 010°17'4 3.7
2014-Aug-13 11:32N 63°27' E 010°25'0 0.0
2014-Aug-13 10:32N 63°27' E 010°25'0 0.0
2014-Aug-13 09:32N 63°27' E 010°25'0 0.0
2014-Aug-13 08:32N 63°27' E 010°25'0 0.0
2014-Aug-13 07:32N 63°27' E 010°25'0 0.0
2014-Aug-13 06:32N 63°27' E 010°25'0 0.0
2014-Aug-13 05:32N 63°27' E 010°25'0 0.0
2014-Aug-13 04:32N 63°27' E 010°25'0 0.0
2014-Aug-13 03:32N 63°27' E 010°25'0 0.0
2014-Aug-13 02:32N 63°27' E 010°25'0 0.0
2014-Aug-13 01:32N 63°27' E 010°25'0 0.0
2014-Aug-13 00:32N 63°27' E 010°25'  
Track history (hours):
 
Tides and Currents Weather Stations Pressure Air Temp Water Temp Dewpoint Dewpoint Depression Visibility Wind Speed Wind Dir Waves Ship Positions

Green Ice

Last reported at 2014-Aug-23 00:18 UTC. Time now 2014-Aug-23 19:17 UTC.
Position N 64°44' E 010°56'.

Length 86 m; draft 6.4 m.

Type: Cargo ship. MMSI: 311411000.

Date/timePositionNaut miles runAvg speedWind from/ knotsBaromVisibWave heightAir tempDewpointWater temp
2014-Aug-23 00:18N 64°44' E 010°56'1013.1
2014-Aug-22 23:33N 64°51' E 011°12'1313.0
2014-Aug-22 22:33N 64°59' E 011°35'1512.4
2014-Aug-22 21:20N 65°12' E 011°53'55 9.4
2014-Aug-22 15:30N 66°04' E 012°38'1512.8
2014-Aug-22 14:17N 66°17' E 012°55'1013.0
2014-Aug-22 13:32N 66°27' E 012°59'3012.1
2014-Aug-22 11:03N 66°55' E 013°29'611.2
2014-Aug-22 10:31N 66°60' E 013°37'1312.5
2014-Aug-22 09:29N 67°08' E 014°02'1212.8
2014-Aug-22 08:33N 67°19' E 014°17'1211.7
2014-Aug-22 07:32N 67°30' E 014°22'156 5.8
2014-Aug-21 04:28N 69°33' E 018°43'6 6.8
2014-Aug-21 03:32N 69°38' E 018°57'0 0.0
2014-Aug-21 02:32N 69°38' E 018°57'0 0.0
2014-Aug-21 01:32N 69°38' E 018°57'0 0.0
2014-Aug-21 00:29N 69°38' E 018°57'0 0.0
2014-Aug-20 23:32N 69°38' E 018°57'0 0.0
2014-Aug-20 22:29N 69°38' E 018°57'0 0.0
2014-Aug-20 21:29N 69°38' E 018°57'0 0.0
2014-Aug-20 20:32N 69°38' E 018°57'0 0.0
2014-Aug-20 19:32N 69°38' E 018°57'0 0.0
2014-Aug-20 18:29N 69°38' E 018°57'0 0.0
2014-Aug-20 17:32N 69°38' E 018°57'0 0.0
2014-Aug-20 16:32N 69°38' E 018°57'0 0.0
2014-Aug-20 15:32N 69°38' E 018°57'0 0.0
2014-Aug-20 14:29N 69°38' E 018°57'2 2.0
2014-Aug-20 13:33N 69°39' E 018°58'0 0.0
2014-Aug-20 12:33N 69°39' E 018°58'0 0.0
2014-Aug-20 11:33N 69°39' E 018°58'0 0.0
2014-Aug-20 10:33N 69°39' E 018°58'0 0.0
2014-Aug-20 09:27N 69°39' E 018°58'3 2.3
2014-Aug-20 08:11N 69°42' E 019°01'0 0.0
2014-Aug-20 07:23N 69°42' E 019°01'4 5.3
2014-Aug-20 06:33N 69°46' E 019°07'9713.5
2014-Aug-19 23:21N 70°36' E 023°13'9 3.8
2014-Aug-19 21:04N 70°38' E 023°39'1 0.4
2014-Aug-19 19:33N 70°38' E 023°40'4 3.0
2014-Aug-19 18:05N 70°41' E 023°30'  
2014-Aug-17 08:14N 70°42' E 023°32'4 4.1
2014-Aug-17 07:19N 70°40' E 023°41'0 0.0
2014-Aug-17 05:33N 70°40' E 023°41'0 0.1
2014-Aug-17 04:28N 70°40' E 023°41'261 5.1
2014-Aug-15 01:33N 67°49' E 014°25'1712.6
2014-Aug-15 00:13N 67°33' E 014°21'913.0
2014-Aug-14 23:33N 67°24' E 014°26'7 6.4
2014-Aug-14 22:29N 67°17' E 014°24'0 0.0
2014-Aug-14 21:32N 67°17' E 014°24'0 0.0
2014-Aug-14 20:32N 67°17' E 014°24'0 0.0
2014-Aug-14 19:32N 67°17' E 014°24'0 0.0
2014-Aug-14 18:29N 67°17' E 014°24'0 0.0
2014-Aug-14 17:29N 67°17' E 014°24'1010.9
2014-Aug-14 16:33N 67°11' E 014°04'1813.0
2014-Aug-14 15:11N 66°58' E 013°32'3212.3
2014-Aug-14 12:33N 66°28' E 012°60'97 7.3
2014-Aug-13 23:08N 64°58' E 011°32'814.3
2014-Aug-13 22:34N 64°53' E 011°17'2 2.0
2014-Aug-13 21:33N 64°51' E 011°14'8810.7
2014-Aug-13 13:18N 63°30' E 009°56'1013.0
2014-Aug-13 12:33N 63°28' E 010°17'4 3.7
2014-Aug-13 11:32N 63°27' E 010°25'0 0.0
2014-Aug-13 10:32N 63°27' E 010°25'0 0.0
2014-Aug-13 09:32N 63°27' E 010°25'0 0.0
2014-Aug-13 08:32N 63°27' E 010°25'0 0.0
2014-Aug-13 07:32N 63°27' E 010°25'0 0.0
2014-Aug-13 06:32N 63°27' E 010°25'0 0.0
2014-Aug-13 05:32N 63°27' E 010°25'0 0.0
2014-Aug-13 04:32N 63°27' E 010°25'0 0.0
2014-Aug-13 03:32N 63°27' E 010°25'0 0.0
2014-Aug-13 02:32N 63°27' E 010°25'0 0.0
2014-Aug-13 01:32N 63°27' E 010°25'0 0.0
2014-Aug-13 00:32N 63°27' E 010°25'  

Dump ship's entire track history